createdAt,value
2022-09-06T00:00:27.705Z,15.09
2022-09-06T00:02:56.831Z,15.08
2022-09-06T00:05:23.812Z,15.07
2022-09-06T00:07:50.636Z,15.08
2022-09-06T00:10:17.429Z,15.03
2022-09-06T00:12:44.383Z,14.97
2022-09-06T00:15:13.062Z,14.99
2022-09-06T00:17:39.792Z,14.97
2022-09-06T00:20:10.635Z,15.00
2022-09-06T00:22:38.865Z,14.95
2022-09-06T00:25:08.101Z,14.91
2022-09-06T00:27:35.342Z,14.93
2022-09-06T00:30:04.660Z,14.87
2022-09-06T00:32:33.077Z,14.85
2022-09-06T00:34:59.935Z,14.89
2022-09-06T00:37:26.728Z,14.88
2022-09-06T00:39:53.518Z,14.86
2022-09-06T00:42:20.439Z,14.88
2022-09-06T00:44:51.602Z,14.87
2022-09-06T00:47:19.626Z,14.89
2022-09-06T00:49:53.292Z,14.91
2022-09-06T00:52:21.292Z,14.89
2022-09-06T00:54:50.588Z,14.90
2022-09-06T00:57:18.908Z,14.91
2022-09-06T00:59:48.867Z,14.93
2022-09-06T01:02:15.907Z,14.95
2022-09-06T01:04:48.649Z,14.96
2022-09-06T01:07:55.454Z,14.96
2022-09-06T01:10:51.853Z,14.96
2022-09-06T01:13:40.891Z,15.01
2022-09-06T01:16:37.275Z,15.02
2022-09-06T01:19:28.658Z,15.02
2022-09-06T01:22:38.709Z,15.06
2022-09-06T01:25:54.333Z,15.07
2022-09-06T01:28:44.947Z,15.08
2022-09-06T01:31:31.271Z,15.04
2022-09-06T01:34:04.066Z,15.07
2022-09-06T01:37:06.115Z,15.06
2022-09-06T01:39:35.229Z,15.06
2022-09-06T01:42:14.596Z,15.06
2022-09-06T01:45:11.549Z,15.03
2022-09-06T01:48:19.120Z,14.99
2022-09-06T01:51:52.239Z,15.04
2022-09-06T01:54:55.312Z,14.99
2022-09-06T01:57:49.762Z,15.03
2022-09-06T02:00:22.591Z,15.03
2022-09-06T02:03:29.031Z,14.99
2022-09-06T02:06:09.393Z,14.98
2022-09-06T02:08:46.841Z,14.98
2022-09-06T02:11:17.007Z,15.02
2022-09-06T02:14:02.144Z,15.02
2022-09-06T02:16:36.104Z,15.03
2022-09-06T02:19:24.552Z,15.05
2022-09-06T02:22:01.855Z,15.04
2022-09-06T02:24:35.108Z,14.97
2022-09-06T02:27:01.956Z,14.97
2022-09-06T02:29:28.911Z,14.97
2022-09-06T02:32:24.077Z,15.01
2022-09-06T02:34:56.651Z,15.03
2022-09-06T02:37:26.188Z,15.06
2022-09-06T02:40:00.273Z,15.07
2022-09-06T02:42:27.119Z,15.11
2022-09-06T02:44:53.982Z,15.14
2022-09-06T02:47:20.707Z,15.15
2022-09-06T02:49:47.382Z,15.19
2022-09-06T02:52:14.152Z,15.20
2022-09-06T02:54:40.938Z,15.19
2022-09-06T02:57:07.745Z,15.23
2022-09-06T02:59:34.550Z,15.23
2022-09-06T03:02:01.617Z,15.23
2022-09-06T03:04:28.893Z,15.23
2022-09-06T03:06:56.475Z,15.26
2022-09-06T03:09:23.268Z,15.26
2022-09-06T03:11:57.558Z,15.27
2022-09-06T03:14:24.258Z,15.27
2022-09-06T03:16:51.143Z,15.23
2022-09-06T03:19:18.041Z,15.23
2022-09-06T03:21:44.820Z,15.20
2022-09-06T03:24:11.538Z,15.18
2022-09-06T03:26:38.211Z,15.14
2022-09-06T03:29:05.077Z,15.10
2022-09-06T03:31:31.968Z,15.09
2022-09-06T03:33:58.704Z,15.06
2022-09-06T03:36:34.108Z,15.03
2022-09-06T03:39:00.735Z,14.99
2022-09-06T03:44:02.622Z,14.95
2022-09-06T03:46:30.919Z,14.94
2022-09-06T03:48:59.689Z,14.91
2022-09-06T03:51:29.514Z,14.91
2022-09-06T03:53:59.849Z,14.84
2022-09-06T03:56:26.722Z,14.83
2022-09-06T03:58:54.404Z,14.85
2022-09-06T04:01:27.542Z,14.83
2022-09-06T04:03:54.464Z,14.77
2022-09-06T04:06:23.689Z,14.74
2022-09-06T04:08:50.365Z,14.70
2022-09-06T04:11:25.190Z,14.69
2022-09-06T04:13:52.023Z,14.60
2022-09-06T04:16:27.715Z,14.58
2022-09-06T04:18:54.573Z,14.63
2022-09-06T04:24:11.898Z,14.54
2022-09-06T04:26:39.161Z,14.50
2022-09-06T04:29:10.657Z,14.50
2022-09-06T04:31:40.671Z,14.49
2022-09-06T04:34:07.474Z,14.50
2022-09-06T04:36:37.571Z,14.49
2022-09-06T04:39:05.398Z,14.43
2022-09-06T04:41:35.107Z,14.42
2022-09-06T04:44:02.284Z,14.37
2022-09-06T04:46:42.263Z,14.41
2022-09-06T04:51:50.508Z,14.38
2022-09-06T04:54:21.485Z,14.37
2022-09-06T04:56:51.555Z,14.34
2022-09-06T04:59:26.894Z,14.32
2022-09-06T05:01:54.722Z,14.30
2022-09-06T05:07:15.490Z,14.30
2022-09-06T05:09:42.374Z,14.28
2022-09-06T05:12:09.210Z,14.31
2022-09-06T05:14:35.900Z,14.31
2022-09-06T05:17:04.035Z,14.34
2022-09-06T05:19:30.924Z,14.34
2022-09-06T05:21:57.859Z,14.32
2022-09-06T05:24:26.826Z,14.37
2022-09-06T05:26:54.128Z,14.43
2022-09-06T05:29:20.776Z,14.45
2022-09-06T05:31:47.553Z,14.55
2022-09-06T05:34:15.117Z,14.63
2022-09-06T05:36:42.085Z,14.68
2022-09-06T05:39:09.524Z,14.72
2022-09-06T05:41:36.979Z,14.90
2022-09-06T05:44:05.742Z,14.95
2022-09-06T05:46:32.511Z,15.08
2022-09-06T05:49:08.602Z,15.10
2022-09-06T05:51:35.654Z,15.19
2022-09-06T05:54:02.863Z,15.22
2022-09-06T05:56:29.796Z,15.23
2022-09-06T05:58:56.552Z,15.31
2022-09-06T06:01:27.898Z,15.23
2022-09-06T06:04:04.906Z,15.33
2022-09-06T06:06:34.924Z,15.24
2022-09-06T06:09:02.337Z,15.38
2022-09-06T06:11:31.213Z,15.41
2022-09-06T06:13:59.013Z,15.38
2022-09-06T06:19:11.073Z,15.56
2022-09-06T06:21:39.095Z,15.58
2022-09-06T06:24:12.020Z,15.65
2022-09-06T06:26:39.806Z,15.69
2022-09-06T06:29:09.645Z,15.99
2022-09-06T06:31:39.168Z,15.86
2022-09-06T06:34:07.861Z,15.85
2022-09-06T06:39:17.429Z,15.92
2022-09-06T06:41:44.400Z,15.94
2022-09-06T06:44:11.744Z,16.34
2022-09-06T06:46:47.174Z,16.69
2022-09-06T06:49:14.035Z,16.65
2022-09-06T06:54:22.230Z,16.21
2022-09-06T06:56:49.019Z,16.36
2022-09-06T06:59:16.159Z,16.18
2022-09-06T07:12:38.576Z,16.81
2022-09-06T07:15:06.467Z,16.83
2022-09-06T07:20:18.329Z,17.13
2022-09-06T07:22:48.020Z,16.93
2022-09-06T07:25:31.656Z,17.07
2022-09-06T07:28:08.361Z,17.16
2022-09-06T07:33:18.961Z,17.73
2022-09-06T07:35:57.855Z,17.70
2022-09-06T07:38:25.321Z,17.34
2022-09-06T07:43:59.405Z,17.57
2022-09-06T07:46:26.266Z,17.27
2022-09-06T07:48:56.229Z,17.27
2022-09-06T07:51:33.907Z,17.30
2022-09-06T07:56:49.522Z,17.89
2022-09-06T07:59:27.817Z,17.99
2022-09-06T08:01:57.674Z,18.81
2022-09-06T08:04:24.880Z,18.47
2022-09-06T08:09:49.328Z,18.49
2022-09-06T08:12:22.417Z,18.08
2022-09-06T08:14:49.220Z,17.69
2022-09-06T08:17:16.082Z,18.09
2022-09-06T08:19:42.887Z,18.39
2022-09-06T08:22:12.541Z,17.95
2022-09-06T08:24:39.420Z,18.14
2022-09-06T08:27:07.879Z,18.13
2022-09-06T08:29:35.813Z,18.13
2022-09-06T08:32:03.587Z,18.63
2022-09-06T08:34:33.153Z,18.68
2022-09-06T08:36:59.871Z,18.70
2022-09-06T08:39:26.806Z,18.79
2022-09-06T08:42:03.870Z,18.84
2022-09-06T08:45:04.007Z,18.69
2022-09-06T08:47:31.032Z,19.04
2022-09-06T08:50:08.018Z,18.85
2022-09-06T08:53:18.172Z,18.58
2022-09-06T08:56:16.225Z,18.83
2022-09-06T08:58:55.839Z,19.18
2022-09-06T09:01:36.476Z,20.02
2022-09-06T09:04:14.883Z,19.46
2022-09-06T09:06:44.864Z,19.74
2022-09-06T09:09:16.555Z,19.30
2022-09-06T09:11:53.898Z,18.57
2022-09-06T09:14:42.599Z,19.06
2022-09-06T09:17:33.928Z,18.96
2022-09-06T09:20:04.424Z,19.44
2022-09-06T09:22:31.487Z,19.76
2022-09-06T09:25:02.062Z,20.23
2022-09-06T09:27:31.233Z,20.27
2022-09-06T09:32:58.040Z,19.75
2022-09-06T09:35:42.310Z,20.41
2022-09-06T09:38:19.164Z,20.23
2022-09-06T09:41:05.606Z,19.73
2022-09-06T09:43:53.789Z,19.81
2022-09-06T09:46:23.545Z,20.37
2022-09-06T09:49:29.347Z,21.15
2022-09-06T09:52:15.077Z,21.19
2022-09-06T09:54:46.665Z,21.58
2022-09-06T09:57:20.120Z,21.91
2022-09-06T09:59:58.751Z,22.73
2022-09-06T10:02:39.128Z,22.69
2022-09-06T10:05:13.951Z,22.57
2022-09-06T10:07:58.696Z,22.05
2022-09-06T10:10:35.264Z,22.28
2022-09-06T10:13:29.810Z,21.98
2022-09-06T10:16:00.709Z,21.43
2022-09-06T10:18:39.484Z,21.26
2022-09-06T10:21:24.013Z,21.23
2022-09-06T10:24:46.778Z,21.00
2022-09-06T10:27:27.238Z,20.74
2022-09-06T10:30:09.979Z,20.55
2022-09-06T10:33:20.917Z,20.86
2022-09-06T10:35:47.747Z,20.00
2022-09-06T10:39:00.378Z,20.46
2022-09-06T10:48:37.158Z,20.16
2022-09-06T11:00:29.371Z,20.15
2022-09-06T11:06:17.318Z,20.53
2022-09-06T11:09:41.427Z,20.79
2022-09-06T11:12:44.402Z,20.51
2022-09-06T11:15:20.421Z,20.77
2022-09-06T11:21:25.776Z,20.22
2022-09-06T11:43:02.713Z,21.38
2022-09-06T11:45:44.814Z,21.31
2022-09-06T11:49:02.408Z,21.06
2022-09-06T11:51:45.286Z,20.69
2022-09-06T11:54:15.115Z,21.18
2022-09-06T11:57:14.783Z,21.25
2022-09-06T11:59:50.724Z,20.90
2022-09-06T12:02:32.107Z,21.29
2022-09-06T12:05:00.361Z,20.74
2022-09-06T12:07:37.111Z,20.67
2022-09-06T12:10:31.822Z,20.93
2022-09-06T12:12:59.357Z,21.17
2022-09-06T12:15:45.625Z,21.06
2022-09-06T12:18:47.483Z,21.27
2022-09-06T12:21:47.621Z,21.50
2022-09-06T12:24:36.265Z,21.00
2022-09-06T12:27:25.391Z,21.04
2022-09-06T12:30:01.862Z,20.94
2022-09-06T12:32:57.436Z,20.92
2022-09-06T12:38:26.066Z,21.14
2022-09-06T12:40:58.562Z,21.17
2022-09-06T12:43:27.074Z,20.98
2022-09-06T12:45:54.165Z,20.97
2022-09-06T12:48:32.391Z,21.28
2022-09-06T12:51:08.404Z,21.11
2022-09-06T12:53:35.772Z,21.48
2022-09-06T12:56:14.744Z,21.04
2022-09-06T12:58:41.540Z,20.73
2022-09-06T13:01:19.783Z,20.73
2022-09-06T13:04:07.369Z,20.87
2022-09-06T13:06:45.801Z,20.53
2022-09-06T13:52:41.260Z,21.02
2022-09-06T14:14:14.554Z,21.14
2022-09-06T14:57:21.925Z,20.56
2022-09-06T15:15:59.094Z,19.96
2022-09-06T15:26:44.456Z,19.63
2022-09-06T15:29:13.803Z,19.58
2022-09-06T15:31:42.991Z,19.51
2022-09-06T15:34:10.578Z,19.54
2022-09-06T15:36:38.331Z,19.27
2022-09-06T15:39:06.426Z,19.30
2022-09-06T15:41:39.636Z,19.24
2022-09-06T15:44:13.020Z,19.11
2022-09-06T15:52:20.478Z,19.10
2022-09-06T15:55:05.664Z,18.99
2022-09-06T16:03:03.094Z,18.86
2022-09-06T16:24:25.510Z,18.56
2022-09-06T16:26:55.567Z,18.68
2022-09-06T16:29:22.466Z,18.68
2022-09-06T16:31:49.817Z,18.56
2022-09-06T16:53:04.315Z,18.28
2022-09-06T16:55:31.235Z,18.33
2022-09-06T17:00:45.105Z,18.25
2022-09-06T17:05:56.186Z,18.25
2022-09-06T17:13:54.550Z,18.04
2022-09-06T17:16:46.153Z,17.99
2022-09-06T17:21:54.671Z,17.87
2022-09-06T17:24:21.770Z,17.84
2022-09-06T17:26:48.527Z,17.83
2022-09-06T17:29:17.430Z,17.77
2022-09-06T17:37:07.672Z,17.66
2022-09-06T17:39:35.665Z,17.60
2022-09-06T17:42:03.018Z,17.54
2022-09-06T17:44:30.361Z,17.52
2022-09-06T17:47:14.064Z,17.47
2022-09-06T17:49:42.730Z,17.42
2022-09-06T17:52:10.273Z,17.41
2022-09-06T17:54:37.527Z,17.34
2022-09-06T17:59:45.238Z,17.32
2022-09-06T18:04:53.483Z,17.23
2022-09-06T18:12:43.870Z,17.13
2022-09-06T18:15:11.154Z,17.07
2022-09-06T18:17:37.942Z,17.03
2022-09-06T18:20:06.166Z,16.99
2022-09-06T18:22:33.090Z,16.93
2022-09-06T18:24:59.926Z,16.91
2022-09-06T18:27:26.789Z,16.87
2022-09-06T18:32:35.439Z,16.87
2022-09-06T18:37:43.871Z,16.81
2022-09-06T18:40:12.322Z,16.78
2022-09-06T18:42:46.886Z,16.75
2022-09-06T18:48:00.690Z,16.71
2022-09-06T18:50:31.479Z,16.62
2022-09-06T18:52:58.476Z,16.64
2022-09-06T18:55:25.299Z,16.59
2022-09-06T18:57:54.063Z,16.54
2022-09-06T19:00:21.479Z,16.52
2022-09-06T19:02:48.638Z,16.47
2022-09-06T19:05:15.495Z,16.41
2022-09-06T19:07:42.292Z,16.40
2022-09-06T19:10:10.382Z,16.39
2022-09-06T19:12:43.719Z,16.39
2022-09-06T19:15:11.425Z,16.38
2022-09-06T19:17:38.244Z,16.31
2022-09-06T19:20:06.155Z,16.29
2022-09-06T19:22:33.187Z,16.29
2022-09-06T19:25:00.438Z,16.31
2022-09-06T19:27:27.489Z,16.19
2022-09-06T19:29:54.861Z,16.21
2022-09-06T19:32:26.408Z,16.18
2022-09-06T19:34:53.341Z,16.16
2022-09-06T19:37:23.749Z,16.12
2022-09-06T19:39:50.720Z,16.07
2022-09-06T19:44:59.152Z,16.02
2022-09-06T19:47:25.899Z,16.00
2022-09-06T19:49:52.682Z,15.98
2022-09-06T19:52:19.480Z,15.95
2022-09-06T20:00:12.080Z,15.92
2022-09-06T20:02:39.109Z,15.92
2022-09-06T20:05:06.558Z,15.89
2022-09-06T20:07:33.473Z,15.93
2022-09-06T20:10:00.353Z,15.94
2022-09-06T20:12:29.665Z,15.94
2022-09-06T20:14:57.754Z,15.89
2022-09-06T20:17:39.793Z,15.91
2022-09-06T20:20:07.644Z,15.93
2022-09-06T20:22:34.585Z,15.93
2022-09-06T20:25:01.375Z,15.92
2022-09-06T20:27:28.163Z,15.95
2022-09-06T20:29:55.308Z,15.92
2022-09-06T20:35:04.087Z,15.91
2022-09-06T20:37:32.275Z,15.87
2022-09-06T20:40:00.055Z,15.88
2022-09-06T20:42:26.819Z,15.89
2022-09-06T20:44:53.849Z,15.85
2022-09-06T20:47:20.670Z,15.84
2022-09-06T20:49:50.600Z,15.80
2022-09-06T20:52:18.015Z,15.81
2022-09-06T20:54:44.769Z,15.78
2022-09-06T20:57:11.501Z,15.74
2022-09-06T20:59:38.190Z,15.65
2022-09-06T21:02:05.471Z,15.62
2022-09-06T21:04:32.364Z,15.58
2022-09-06T21:07:00.082Z,15.56
2022-09-06T21:09:26.821Z,15.53
2022-09-06T21:11:54.264Z,15.53
2022-09-06T21:14:21.535Z,15.47
2022-09-06T21:16:48.320Z,15.42
2022-09-06T21:19:15.166Z,15.42
2022-09-06T21:21:42.927Z,15.38
2022-09-06T21:24:11.538Z,15.33
2022-09-06T21:26:44.912Z,15.29
2022-09-06T21:29:11.861Z,15.27
2022-09-06T21:31:38.800Z,15.23
2022-09-06T21:34:15.622Z,15.26
2022-09-06T21:36:43.677Z,15.24
2022-09-06T21:39:12.769Z,15.19
2022-09-06T21:41:43.175Z,15.17
2022-09-06T21:44:12.228Z,15.18
2022-09-06T21:46:41.012Z,15.15
2022-09-06T21:49:13.264Z,15.11
2022-09-06T21:51:41.435Z,15.05
2022-09-06T21:54:08.930Z,15.02
2022-09-06T21:56:39.089Z,14.99
2022-09-06T21:59:07.372Z,14.95
2022-09-06T22:01:37.804Z,14.88
2022-09-06T22:04:06.744Z,14.88
2022-09-06T22:06:35.852Z,14.83
2022-09-06T22:09:11.006Z,14.77
2022-09-06T22:11:42.293Z,14.80
2022-09-06T22:14:14.325Z,14.76
2022-09-06T22:16:42.047Z,14.75
2022-09-06T22:19:10.329Z,14.74
2022-09-06T22:21:38.656Z,14.71
2022-09-06T22:24:10.216Z,14.71
2022-09-06T22:26:40.187Z,14.68
2022-09-06T22:29:11.069Z,14.68
2022-09-06T22:31:38.839Z,14.68
2022-09-06T22:34:07.328Z,14.69
2022-09-06T22:36:34.194Z,14.65
2022-09-06T22:39:01.143Z,14.68
2022-09-06T22:41:32.343Z,14.66
2022-09-06T22:44:07.377Z,14.67
2022-09-06T22:46:35.982Z,14.68
2022-09-06T22:49:04.021Z,14.62
2022-09-06T22:51:31.001Z,14.61
2022-09-06T22:53:57.949Z,14.62
2022-09-06T22:56:24.746Z,14.58
2022-09-06T22:58:51.554Z,14.55
2022-09-06T23:01:18.460Z,14.55
2022-09-06T23:03:45.595Z,14.53
2022-09-06T23:06:12.694Z,14.52
2022-09-06T23:08:41.558Z,14.52
2022-09-06T23:11:13.546Z,14.49
2022-09-06T23:13:43.760Z,14.47
2022-09-06T23:16:19.036Z,14.51
2022-09-06T23:18:47.719Z,14.48
2022-09-06T23:21:19.821Z,14.48
2022-09-06T23:23:50.035Z,14.43
2022-09-06T23:26:38.363Z,14.43
2022-09-06T23:29:05.696Z,14.38
2022-09-06T23:31:32.747Z,14.42
2022-09-06T23:34:02.537Z,14.43
2022-09-06T23:36:31.228Z,14.44
2022-09-06T23:38:58.593Z,14.40
2022-09-06T23:41:25.451Z,14.39
2022-09-06T23:43:52.395Z,14.33
2022-09-06T23:46:19.552Z,14.31
2022-09-06T23:48:47.372Z,14.27
2022-09-06T23:51:14.453Z,14.23
2022-09-06T23:53:41.603Z,14.22
2022-09-06T23:56:09.398Z,14.18
2022-09-06T23:58:37.678Z,14.16
